Chaudfontaine, Belgium
Current Conditions -  °F | °C
As of 3:20 PM on Sunday 25 Jan 2015 (Local Time) from EBLG Reporting Station
Light Rain Light Rain  
Wind Chill: 29°   Ceiling: 600
Heat Index: 36°   Visibility: 1.2mi
Dew Point: 34°   Wind: 8mph
Humidity: 93%   Direction: 240°WSW
Pressure: 30.39"   Gusts: NA
Location:  50.58°N, 5.63°E
Report Text: EBLG 251420Z 24007KT 2000 -RA BR FEW002 BKN006 BKN042 02/01 Q1029 R23/120195 TEMPO BKN005
Loading
Personal Weather Stations






























Interactive Weather Map New forecast layout! Learn more

10-Day Weather Forecast

Advertisements
Track Severe Weather on mobile